Time;durP1;ratioP1;P1;durP2;ratioP2;P2;SDS_P1;SDS_P2;PMS_P1;PMS_P2;Temp;Humidity;BMP_temperature;BMP_pressure;BME280_temperature;BME280_humidity;BME280_pressure;Samples;Min_cycle;Max_cycle;Signal;HPM_P1;HPM_P2
2022/08/10 00:01:25;;;;;;;5.45;3.00;;;20.40;75.50;;;;;;5045336;28;20069;-65
2022/08/10 00:03:50;;;;;;;4.93;2.20;;;20.40;75.70;;;;;;5051463;28;20486;-65
2022/08/10 00:06:16;;;;;;;4.57;2.70;;;20.30;75.80;;;;;;5033922;28;20404;-65
2022/08/10 00:08:42;;;;;;;5.07;2.78;;;20.30;75.90;;;;;;5051348;28;20029;-64
2022/08/10 00:11:08;;;;;;;6.15;2.50;;;20.30;76.00;;;;;;5050978;28;20021;-64
2022/08/10 00:13:34;;;;;;;5.85;3.13;;;20.20;76.20;;;;;;5049881;28;20029;-64
2022/08/10 00:16:00;;;;;;;3.58;2.90;;;20.20;76.40;;;;;;5051392;28;20021;-64
2022/08/10 00:18:26;;;;;;;5.20;3.30;;;20.20;76.60;;;;;;5050769;28;20078;-65
2022/08/10 00:20:52;;;;;;;6.68;3.33;;;20.20;76.70;;;;;;5051440;28;20095;-65
2022/08/10 00:23:18;;;;;;;6.82;3.13;;;20.10;76.80;;;;;;5050859;28;20032;-65
2022/08/10 00:25:44;;;;;;;5.55;2.50;;;20.10;76.90;;;;;;5051932;28;20079;-65
2022/08/10 00:28:10;;;;;;;4.38;2.78;;;20.10;76.90;;;;;;5049859;28;20029;-65
2022/08/10 00:30:36;;;;;;;6.68;2.88;;;20.10;77.10;;;;;;5051920;28;20087;-65
2022/08/10 00:33:01;;;;;;;5.43;2.92;;;20.10;77.20;;;;;;5050721;28;20021;-65
2022/08/10 00:35:27;;;;;;;4.97;2.50;;;20.00;77.40;;;;;;5051770;28;20068;-65
2022/08/10 00:37:52;;;;;;;6.13;2.30;;;20.00;77.40;;;;;;5051590;28;20411;-65
2022/08/10 00:40:18;;;;;;;4.07;2.47;;;20.00;77.70;;;;;;5049081;28;20052;-65
2022/08/10 00:42:43;;;;;;;6.15;2.80;;;20.00;77.80;;;;;;5051952;28;20021;-65
2022/08/10 00:45:10;;;;;;;5.00;2.80;;;20.00;77.90;;;;;;5050538;28;20031;-65
2022/08/10 00:47:35;;;;;;;5.93;3.22;;;20.00;78.10;;;;;;5050968;28;20029;-65
2022/08/10 00:50:01;;;;;;;3.65;2.50;;;20.00;78.20;;;;;;5050792;28;20032;-65
2022/08/10 00:52:29;;;;;;;5.80;2.88;;;19.90;78.20;;;;;;5051484;28;20464;-65
2022/08/10 00:54:55;;;;;;;5.30;2.80;;;19.90;78.40;;;;;;5050277;28;20021;-65
2022/08/10 00:57:21;;;;;;;6.22;2.75;;;19.90;78.60;;;;;;5050441;28;20036;-65
2022/08/10 00:59:47;;;;;;;6.78;3.28;;;19.80;78.70;;;;;;5034841;28;20029;-65
2022/08/10 01:02:13;;;;;;;4.40;2.60;;;19.80;78.80;;;;;;5049807;28;20036;-65
2022/08/10 01:04:38;;;;;;;5.47;2.95;;;19.80;79.00;;;;;;5050220;28;20116;-65
2022/08/10 01:07:41;;;;;;;4.80;3.05;;;19.80;79.20;;;;;;5051329;28;20044;-65
2022/08/10 01:10:28;;;;;;;4.72;2.78;;;19.80;79.30;;;;;;5050267;28;20029;-65
2022/08/10 01:13:32;;;;;;;5.13;2.72;;;19.80;79.40;;;;;;5048968;28;20047;-65
2022/08/10 01:16:13;;;;;;;5.82;3.30;;;19.80;79.40;;;;;;5023901;28;20120;-65
2022/08/10 01:18:47;;;;;;;6.63;2.88;;;19.80;79.60;;;;;;5048791;28;20037;-65
2022/08/10 01:21:54;;;;;;;10.33;3.43;;;19.70;79.70;;;;;;5049650;28;20100;-65
2022/08/10 01:24:29;;;;;;;4.55;3.03;;;19.70;79.70;;;;;;5051369;28;20288;-65
2022/08/10 01:27:03;;;;;;;4.50;2.58;;;19.70;79.80;;;;;;5050275;28;20025;-65
2022/08/10 01:29:32;;;;;;;4.53;3.42;;;19.70;80.10;;;;;;5050827;28;20059;-65
2022/08/10 01:32:02;;;;;;;6.47;2.90;;;19.60;80.20;;;;;;5049975;28;20052;-65
2022/08/10 01:34:36;;;;;;;4.68;3.25;;;19.60;80.40;;;;;;5049585;28;20029;-65
2022/08/10 01:37:06;;;;;;;5.03;3.03;;;19.60;80.50;;;;;;5049611;28;20029;-65
2022/08/10 01:39:38;;;;;;;5.10;2.80;;;19.60;80.50;;;;;;5051326;28;20028;-65
2022/08/10 01:42:05;;;;;;;4.75;3.00;;;19.60;80.60;;;;;;5049860;28;20161;-65
2022/08/10 01:44:38;;;;;;;5.45;3.33;;;19.60;80.70;;;;;;5051711;28;20032;-65
2022/08/10 01:50:15;;;;;;;5.63;2.78;;;19.50;80.90;;;;;;5054370;28;20037;-65
2022/08/10 01:52:44;;;;;;;4.68;3.28;;;19.50;80.90;;;;;;5052479;28;20559;-65
2022/08/10 01:55:12;;;;;;;4.45;3.35;;;19.50;81.00;;;;;;5054438;28;20033;-65
2022/08/10 01:57:40;;;;;;;6.07;2.80;;;19.50;81.20;;;;;;5053772;28;20175;-65
2022/08/10 02:00:08;;;;;;;4.47;3.28;;;19.50;81.50;;;;;;5054100;28;20057;-65
2022/08/10 02:02:36;;;;;;;4.32;2.97;;;19.40;81.60;;;;;;5053588;28;20119;-65
2022/08/10 02:05:04;;;;;;;4.88;3.38;;;19.40;81.80;;;;;;5031058;28;20091;-65
2022/08/10 02:07:31;;;;;;;6.15;3.47;;;19.40;81.90;;;;;;5053047;28;20496;-65
2022/08/10 02:10:05;;;;;;;6.25;3.58;;;19.40;82.00;;;;;;5054182;28;20048;-65
2022/08/10 02:12:33;;;;;;;6.05;3.38;;;19.30;82.20;;;;;;5053959;28;20021;-66
2022/08/10 02:15:04;;;;;;;4.75;3.15;;;19.20;82.40;;;;;;5053544;28;20044;-66
2022/08/10 02:17:39;;;;;;;7.47;3.50;;;19.20;82.60;;;;;;5052764;28;20031;-66
2022/08/10 02:20:08;;;;;;;10.13;3.92;;;19.10;82.80;;;;;;5054151;28;20450;-65
2022/08/10 02:22:36;;;;;;;6.85;3.45;;;19.10;82.90;;;;;;5053575;28;20033;-65
2022/08/10 02:25:05;;;;;;;5.65;3.53;;;19.10;83.00;;;;;;5053618;28;20048;-65
2022/08/10 02:27:32;;;;;;;7.97;3.63;;;19.10;83.10;;;;;;5052870;28;20028;-65
2022/08/10 02:29:59;;;;;;;6.68;4.25;;;19.10;83.20;;;;;;5053971;28;20033;-66
2022/08/10 02:32:26;;;;;;;5.10;3.67;;;19.10;83.40;;;;;;5052292;28;20527;-65
2022/08/10 02:34:54;;;;;;;6.65;3.63;;;19.00;83.50;;;;;;5054096;28;20091;-65
2022/08/10 02:37:23;;;;;;;6.13;4.07;;;19.00;83.60;;;;;;5051763;28;20029;-65
2022/08/10 02:39:49;;;;;;;6.95;3.97;;;19.00;83.90;;;;;;5053473;28;20063;-65
2022/08/10 02:42:40;;;;;;;5.35;3.40;;;19.00;84.00;;;;;;5051991;28;20060;-65
2022/08/10 02:45:20;;;;;;;5.35;3.40;;;18.90;84.10;;;;;;5053741;28;20375;-65
2022/08/10 02:47:56;;;;;;;9.57;4.10;;;18.90;84.40;;;;;;5053738;28;20043;-66
2022/08/10 02:50:35;;;;;;;6.13;3.97;;;18.80;84.60;;;;;;5043530;28;20473;-66
2022/08/10 02:53:16;;;;;;;6.07;4.03;;;18.80;84.70;;;;;;5040530;28;20044;-66
2022/08/10 02:55:48;;;;;;;7.10;4.22;;;18.80;84.90;;;;;;5052819;28;20496;-66
2022/08/10 02:58:21;;;;;;;4.80;3.38;;;18.80;85.00;;;;;;5052131;28;20029;-66
2022/08/10 03:00:52;;;;;;;6.82;3.58;;;18.80;85.20;;;;;;5051125;28;20477;-66
2022/08/10 03:03:24;;;;;;;5.28;3.88;;;18.80;85.40;;;;;;5052053;28;20079;-66
2022/08/10 03:05:55;;;;;;;8.80;4.82;;;18.70;85.60;;;;;;5052604;28;20508;-66
2022/08/10 03:08:27;;;;;;;6.47;4.03;;;18.70;85.70;;;;;;5052751;28;20029;-65
2022/08/10 03:10:55;;;;;;;5.05;3.50;;;18.70;85.90;;;;;;5050913;28;20492;-65
2022/08/10 03:13:23;;;;;;;6.32;3.83;;;18.60;86.00;;;;;;5052934;28;20097;-66
2022/08/10 03:15:50;;;;;;;10.30;3.50;;;18.60;86.20;;;;;;5052542;28;20029;-65
2022/08/10 03:18:18;;;;;;;5.55;3.45;;;18.60;86.30;;;;;;5050922;28;20072;-65
2022/08/10 03:20:45;;;;;;;5.30;3.75;;;18.60;86.50;;;;;;5051662;28;20037;-65
2022/08/10 03:23:14;;;;;;;4.78;3.63;;;18.60;86.60;;;;;;5052943;28;20060;-65
2022/08/10 03:25:42;;;;;;;9.35;4.78;;;18.60;86.80;;;;;;5051416;28;20090;-66
2022/08/10 03:28:09;;;;;;;6.28;3.85;;;18.60;86.90;;;;;;5052752;28;20025;-65
2022/08/10 03:30:35;;;;;;;6.13;4.10;;;18.60;87.00;;;;;;5051021;28;20024;-65
2022/08/10 03:33:06;;;;;;;5.47;3.58;;;18.60;87.10;;;;;;5052352;28;20028;-65
2022/08/10 03:35:32;;;;;;;7.78;4.00;;;18.60;87.20;;;;;;5050088;28;20024;-65
2022/08/10 03:37:59;;;;;;;8.45;3.88;;;18.60;87.30;;;;;;5052841;28;20048;-65
2022/08/10 03:40:27;;;;;;;8.55;3.90;;;18.70;87.40;;;;;;5051315;28;20033;-65
2022/08/10 03:42:55;;;;;;;6.97;4.05;;;18.60;87.50;;;;;;5052419;28;20100;-65
2022/08/10 03:45:22;;;;;;;6.00;3.78;;;18.60;87.60;;;;;;5051917;28;20033;-65
2022/08/10 03:47:49;;;;;;;8.77;3.85;;;18.60;87.80;;;;;;5051317;28;20047;-65
2022/08/10 03:50:16;;;;;;;7.30;3.50;;;18.60;87.90;;;;;;5051091;28;20418;-65
2022/08/10 03:52:43;;;;;;;4.63;3.53;;;18.60;88.00;;;;;;5052059;28;20028;-66
2022/08/10 03:55:10;;;;;;;7.38;3.80;;;18.60;88.10;;;;;;5033269;28;20036;-66
2022/08/10 03:57:36;;;;;;;5.95;3.78;;;18.60;88.20;;;;;;5050521;28;20143;-66
2022/08/10 04:00:02;;;;;;;6.43;3.75;;;18.60;88.30;;;;;;5034068;28;20070;-66
2022/08/10 04:02:28;;;;;;;10.57;4.55;;;18.60;88.30;;;;;;5049924;28;20051;-66
2022/08/10 04:04:53;;;;;;;6.93;4.22;;;18.60;88.40;;;;;;5052126;28;20032;-65
2022/08/10 04:07:20;;;;;;;5.35;3.58;;;18.60;88.50;;;;;;5048985;28;20036;-65
2022/08/10 04:09:46;;;;;;;6.10;3.20;;;18.60;88.60;;;;;;5051955;28;21272;-66
2022/08/10 04:12:11;;;;;;;5.82;3.95;;;18.70;88.70;;;;;;5049945;28;20024;-65
2022/08/10 04:14:37;;;;;;;6.72;3.58;;;18.70;88.70;;;;;;5050914;28;20025;-64
2022/08/10 04:17:03;;;;;;;6.15;4.05;;;18.70;88.90;;;;;;5051065;28;20063;-64
2022/08/10 04:19:38;;;;;;;7.30;4.15;;;18.70;89.00;;;;;;5051816;28;20017;-65
2022/08/10 04:22:09;;;;;;;6.15;3.75;;;18.70;89.00;;;;;;5051880;28;20036;-65
2022/08/10 04:24:36;;;;;;;6.53;3.45;;;18.60;89.10;;;;;;5051817;28;20081;-64
2022/08/10 04:27:03;;;;;;;5.68;3.40;;;18.60;89.20;;;;;;5049875;28;20053;-64
2022/08/10 04:29:28;;;;;;;6.22;3.70;;;18.60;89.30;;;;;;5050903;28;20018;-64
2022/08/10 04:31:54;;;;;;;7.15;3.92;;;18.60;89.30;;;;;;5054280;28;20029;-65
2022/08/10 04:34:21;;;;;;;7.38;3.92;;;18.60;89.40;;;;;;5050832;28;20472;-64
2022/08/10 04:36:50;;;;;;;6.07;3.70;;;18.60;89.50;;;;;;5050080;28;20029;-65
2022/08/10 04:39:16;;;;;;;7.45;3.75;;;18.60;89.70;;;;;;5051906;28;20061;-65
2022/08/10 04:41:42;;;;;;;6.82;3.92;;;18.60;89.80;;;;;;5050347;28;20076;-64
2022/08/10 04:44:08;;;;;;;6.07;4.07;;;18.70;89.90;;;;;;5051968;28;20017;-65
2022/08/10 04:46:34;;;;;;;7.07;3.85;;;18.70;90.00;;;;;;5049511;28;20035;-66
2022/08/10 04:49:00;;;;;;;4.75;3.70;;;18.70;89.90;;;;;;5050501;28;20029;-69
2022/08/10 04:51:25;;;;;;;8.10;3.42;;;18.80;90.00;;;;;;5049864;28;20495;-70
2022/08/10 04:53:51;;;;;;;8.32;4.20;;;18.80;90.00;;;;;;5050726;28;20017;-69
2022/08/10 04:56:17;;;;;;;7.05;3.50;;;18.80;90.00;;;;;;5050504;28;20037;-68
2022/08/10 04:58:42;;;;;;;5.75;4.00;;;18.80;90.00;;;;;;5051142;28;20029;-68
2022/08/10 05:01:08;;;;;;;5.63;3.97;;;18.80;90.00;;;;;;5051856;28;20028;-68
2022/08/10 05:03:36;;;;;;;7.82;4.82;;;18.90;90.00;;;;;;5050632;28;20021;-67
2022/08/10 05:06:02;;;;;;;8.02;4.00;;;18.90;90.00;;;;;;5050472;28;20041;-67
2022/08/10 05:08:28;;;;;;;7.07;3.80;;;18.90;90.00;;;;;;5050885;28;20044;-68
2022/08/10 05:10:53;;;;;;;6.68;3.95;;;18.90;90.00;;;;;;5050689;28;20025;-67
2022/08/10 05:13:19;;;;;;;7.15;4.10;;;19.00;90.00;;;;;;5050237;28;20020;-67
2022/08/10 05:15:44;;;;;;;6.53;4.32;;;19.00;89.90;;;;;;5050602;28;20033;-67
2022/08/10 05:18:10;;;;;;;7.63;4.47;;;18.90;90.00;;;;;;5049160;28;20104;-66
2022/08/10 05:20:37;;;;;;;5.68;3.83;;;19.00;90.00;;;;;;5054003;28;20407;-67
2022/08/10 05:23:03;;;;;;;9.80;4.78;;;19.00;90.00;;;;;;5054822;28;20037;-67
2022/08/10 05:25:29;;;;;;;8.60;4.30;;;18.90;90.10;;;;;;5054279;28;20511;-67
2022/08/10 05:27:55;;;;;;;6.45;4.32;;;19.00;90.20;;;;;;5042118;28;20029;-67
2022/08/10 05:30:21;;;;;;;7.68;4.28;;;18.90;90.20;;;;;;5054181;28;20032;-67
2022/08/10 05:32:48;;;;;;;6.22;3.95;;;19.00;90.20;;;;;;5054780;28;20430;-67
2022/08/10 05:35:13;;;;;;;10.02;4.68;;;19.00;90.20;;;;;;5054268;28;20090;-67
2022/08/10 05:37:42;;;;;;;6.15;4.53;;;19.00;90.30;;;;;;5054080;28;20059;-67
2022/08/10 05:40:08;;;;;;;7.70;4.88;;;19.00;90.30;;;;;;5054555;28;20037;-67
2022/08/10 05:42:34;;;;;;;7.90;5.05;;;19.00;90.30;;;;;;5047205;28;20033;-67
2022/08/10 05:44:59;;;;;;;5.82;4.60;;;19.10;90.40;;;;;;5054356;28;20117;-67
2022/08/10 05:47:25;;;;;;;7.65;4.45;;;19.10;90.50;;;;;;5054206;28;20033;-67
2022/08/10 05:49:51;;;;;;;6.78;4.30;;;19.10;90.50;;;;;;5053928;28;20463;-67
2022/08/10 05:52:18;;;;;;;7.75;4.45;;;19.10;90.60;;;;;;5053234;28;20100;-67
2022/08/10 05:54:45;;;;;;;5.80;4.38;;;19.10;90.60;;;;;;5054666;28;20033;-66
2022/08/10 05:57:14;;;;;;;10.05;5.20;;;19.10;90.70;;;;;;5053191;28;20029;-66
2022/08/10 05:59:46;;;;;;;9.00;4.07;;;19.10;90.70;;;;;;5040429;28;20477;-66
2022/08/10 06:02:20;;;;;;;6.32;4.32;;;19.10;90.70;;;;;;5048026;28;20124;-66
2022/08/10 06:04:47;;;;;;;8.13;4.60;;;19.20;90.80;;;;;;5041210;28;20405;-67
2022/08/10 06:07:15;;;;;;;6.40;4.20;;;19.30;90.70;;;;;;5052618;28;20031;-66
2022/08/10 06:09:42;;;;;;;10.18;4.80;;;19.30;90.70;;;;;;5054762;28;20471;-66
2022/08/10 06:12:10;;;;;;;6.70;4.22;;;19.40;90.70;;;;;;5053098;28;20039;-66
2022/08/10 06:17:23;;;;;;;7.85;4.65;;;19.50;90.60;;;;;;5044962;28;20061;-65
2022/08/10 06:19:49;;;;;;;7.57;5.18;;;19.50;90.60;;;;;;5049402;28;20040;-65
2022/08/10 06:22:16;;;;;;;7.28;4.90;;;19.50;90.60;;;;;;5048247;28;20078;-65
2022/08/10 06:24:44;;;;;;;10.85;5.30;;;19.60;90.50;;;;;;5052658;28;20037;-65
2022/08/10 06:27:09;;;;;;;6.90;4.47;;;19.60;90.50;;;;;;5048239;28;20037;-65
2022/08/10 06:29:39;;;;;;;8.40;5.03;;;19.70;90.40;;;;;;5053342;28;20036;-65
2022/08/10 06:32:07;;;;;;;6.80;4.28;;;19.70;90.60;;;;;;5050263;28;20036;-65
2022/08/10 06:34:37;;;;;;;6.45;4.70;;;19.70;90.40;;;;;;5051230;28;20476;-65
2022/08/10 06:37:06;;;;;;;7.22;4.30;;;19.80;90.40;;;;;;5055422;28;20519;-65
2022/08/10 06:39:32;;;;;;;6.18;4.30;;;19.80;90.50;;;;;;5057281;28;20036;-65
2022/08/10 06:42:13;;;;;;;6.68;4.28;;;19.80;90.20;;;;;;5048840;28;20492;-66
2022/08/10 06:44:49;;;;;;;9.65;4.47;;;19.80;90.30;;;;;;5053936;28;20037;-66
2022/08/10 06:47:17;;;;;;;5.93;3.97;;;20.00;90.20;;;;;;5051259;28;20391;-66
2022/08/10 06:49:45;;;;;;;6.70;4.47;;;20.00;90.00;;;;;;5051793;28;20033;-66
2022/08/10 06:52:13;;;;;;;5.13;3.47;;;20.10;89.90;;;;;;5051264;28;20048;-66
2022/08/10 06:54:39;;;;;;;4.72;3.47;;;20.10;89.50;;;;;;5050848;28;20055;-65
2022/08/10 06:57:08;;;;;;;5.97;3.90;;;20.20;89.50;;;;;;5050132;28;20111;-66
2022/08/10 06:59:43;;;;;;;5.68;3.65;;;20.20;89.10;;;;;;5052292;28;20029;-66
2022/08/10 07:02:12;;;;;;;7.82;4.10;;;20.30;88.70;;;;;;5049838;28;20045;-65
2022/08/10 07:04:50;;;;;;;5.15;3.58;;;20.30;88.50;;;;;;5051535;28;20071;-65
2022/08/10 07:07:21;;;;;;;6.22;3.90;;;20.30;88.40;;;;;;5050065;28;20043;-65
2022/08/10 07:09:48;;;;;;;7.22;4.15;;;20.40;88.10;;;;;;5053595;28;20060;-65
2022/08/10 07:12:14;;;;;;;8.13;4.07;;;20.40;87.90;;;;;;5051107;28;20037;-65
2022/08/10 07:14:43;;;;;;;6.85;3.65;;;20.50;87.80;;;;;;5052930;28;20029;-65
2022/08/10 07:17:15;;;;;;;7.85;3.80;;;20.60;87.60;;;;;;5050779;28;20494;-65
2022/08/10 07:19:42;;;;;;;5.22;3.95;;;20.70;87.60;;;;;;5052752;28;20079;-66
2022/08/10 07:22:09;;;;;;;5.57;3.67;;;20.70;87.30;;;;;;5049718;28;20033;-65
2022/08/10 07:24:37;;;;;;;4.72;3.67;;;20.80;87.60;;;;;;5042366;28;20035;-66
2022/08/10 07:27:05;;;;;;;4.70;3.30;;;20.90;87.00;;;;;;5048305;28;20041;-65
2022/08/10 07:29:33;;;;;;;5.90;3.30;;;20.90;86.60;;;;;;5050127;28;20542;-65
2022/08/10 07:32:00;;;;;;;8.65;3.45;;;21.10;87.10;;;;;;5033556;28;20033;-65
2022/08/10 07:34:27;;;;;;;10.68;4.47;;;21.10;85.90;;;;;;5050962;28;20839;-68
2022/08/10 07:36:57;;;;;;;9.27;3.70;;;21.20;85.80;;;;;;5049098;28;20437;-65
2022/08/10 07:39:27;;;;;;;8.50;3.60;;;21.20;85.40;;;;;;5052143;28;20033;-66
2022/08/10 07:41:55;;;;;;;8.00;3.58;;;21.30;85.10;;;;;;5049297;28;20063;-66
2022/08/10 07:44:22;;;;;;;5.82;3.67;;;21.30;84.80;;;;;;5050184;28;20040;-67
2022/08/10 07:46:51;;;;;;;4.78;3.20;;;21.40;84.40;;;;;;5058264;28;20061;-66
2022/08/10 07:49:20;;;;;;;4.88;3.05;;;21.40;83.70;;;;;;5051053;28;20053;-67
2022/08/10 07:51:50;;;;;;;11.30;5.30;;;21.40;83.40;;;;;;5051245;28;20025;-66
2022/08/10 07:54:17;;;;;;;8.68;3.75;;;21.50;83.50;;;;;;5050549;28;20029;-66
2022/08/10 07:56:46;;;;;;;5.90;3.28;;;21.60;83.00;;;;;;5050275;28;20033;-67
2022/08/10 07:59:17;;;;;;;5.03;3.47;;;21.60;82.50;;;;;;5052453;28;20036;-66
2022/08/10 08:01:54;;;;;;;6.55;3.60;;;21.70;82.10;;;;;;5050251;28;20040;-66
2022/08/10 08:04:22;;;;;;;10.75;3.83;;;21.80;81.80;;;;;;5033874;28;20431;-67
2022/08/10 08:06:50;;;;;;;10.00;4.40;;;21.80;81.50;;;;;;5049084;28;20539;-66
2022/08/10 08:09:17;;;;;;;5.47;3.55;;;21.90;81.10;;;;;;5047934;28;20118;-67
2022/08/10 08:11:44;;;;;;;4.13;3.15;;;21.90;80.00;;;;;;5047768;28;20036;-66
2022/08/10 08:14:11;;;;;;;5.53;2.80;;;22.00;79.80;;;;;;5048739;28;20032;-67
2022/08/10 08:16:41;;;;;;;3.63;3.05;;;22.00;78.20;;;;;;5050052;28;20017;-66
2022/08/10 08:19:07;;;;;;;5.50;3.28;;;22.00;78.00;;;;;;5049681;28;20037;-66
2022/08/10 08:21:34;;;;;;;9.98;4.65;;;22.10;77.70;;;;;;5048774;28;20068;-66
2022/08/10 08:24:01;;;;;;;9.52;4.65;;;22.10;77.10;;;;;;5049539;28;20523;-67
2022/08/10 08:26:27;;;;;;;6.20;3.85;;;22.20;77.50;;;;;;5049516;28;20047;-66
2022/08/10 08:28:54;;;;;;;7.00;3.42;;;22.30;77.40;;;;;;5045124;28;20078;-67
2022/08/10 08:31:21;;;;;;;4.50;3.22;;;22.30;77.40;;;;;;5042515;28;20029;-67
2022/08/10 08:33:48;;;;;;;7.40;3.15;;;22.40;76.80;;;;;;5049770;28;20452;-67
2022/08/10 08:36:17;;;;;;;5.90;3.00;;;22.50;76.10;;;;;;5049706;28;20036;-67
2022/08/10 08:38:44;;;;;;;9.00;4.43;;;22.60;75.20;;;;;;5050603;28;20426;-67
2022/08/10 08:41:31;;;;;;;6.38;3.50;;;22.60;74.00;;;;;;5048376;28;20473;-66
2022/08/10 08:44:14;;;;;;;4.80;2.70;;;22.70;73.70;;;;;;5030545;28;20078;-66
2022/08/10 08:47:01;;;;;;;6.68;3.22;;;22.70;73.50;;;;;;5037710;28;20037;-66
2022/08/10 08:49:42;;;;;;;6.80;2.40;;;22.80;72.40;;;;;;5050933;28;20540;-66
2022/08/10 08:52:29;;;;;;;6.97;3.20;;;22.90;71.90;;;;;;5048498;28;20502;-66
2022/08/10 08:55:18;;;;;;;8.50;2.95;;;22.90;71.80;;;;;;5033704;28;20537;-67
2022/08/10 08:58:04;;;;;;;6.53;3.22;;;23.00;72.40;;;;;;5050413;28;20040;-66
2022/08/10 09:01:08;;;;;;;5.72;2.83;;;23.10;70.80;;;;;;5048665;28;20029;-67
2022/08/10 09:03:53;;;;;;;2.70;1.98;;;23.10;70.30;;;;;;5041590;28;20071;-66
2022/08/10 09:06:43;;;;;;;4.25;2.55;;;23.20;69.80;;;;;;5043552;28;20072;-67
2022/08/10 09:09:28;;;;;;;2.97;1.98;;;23.30;69.90;;;;;;5050697;28;20032;-67
2022/08/10 09:12:18;;;;;;;5.90;2.72;;;23.40;67.50;;;;;;5043545;28;20025;-66
2022/08/10 09:15:13;;;;;;;6.45;2.30;;;23.40;68.20;;;;;;5042520;28;20031;-66
2022/08/10 09:18:02;;;;;;;4.65;2.20;;;23.40;68.30;;;;;;5037602;28;20041;-66
2022/08/10 09:20:45;;;;;;;3.28;2.10;;;23.60;67.50;;;;;;5040503;28;20124;-66
2022/08/10 09:23:11;;;;;;;2.87;1.70;;;23.60;65.70;;;;;;5048961;28;20021;-67
2022/08/10 09:25:44;;;;;;;2.70;1.60;;;23.70;63.50;;;;;;5043625;28;20293;-67
2022/08/10 09:28:18;;;;;;;3.35;1.73;;;23.70;62.60;;;;;;5045459;28;20033;-66
2022/08/10 09:30:56;;;;;;;2.55;1.75;;;23.70;61.80;;;;;;5042200;28;20033;-66
2022/08/10 09:34:04;;;;;;;4.10;1.90;;;23.80;62.20;;;;;;5050185;28;20036;-66
2022/08/10 09:36:51;;;;;;;2.83;1.75;;;23.90;62.00;;;;;;5023899;28;20033;-66
2022/08/10 09:39:41;;;;;;;4.53;1.83;;;24.00;61.10;;;;;;5050100;28;20025;-66
2022/08/10 09:42:25;;;;;;;2.00;1.50;;;24.10;61.20;;;;;;5045308;28;20041;-66
2022/08/10 09:45:00;;;;;;;5.45;2.10;;;24.20;60.30;;;;;;5026006;28;20028;-66
2022/08/10 09:47:52;;;;;;;4.05;1.98;;;24.30;60.20;;;;;;5050105;28;20041;-66
2022/08/10 09:50:50;;;;;;;4.80;1.77;;;24.30;59.10;;;;;;5049141;28;20039;-66
2022/08/10 09:53:41;;;;;;;4.22;2.03;;;24.50;58.20;;;;;;5038456;28;20051;-67
2022/08/10 09:56:45;;;;;;;2.53;1.73;;;24.50;58.20;;;;;;5048892;28;20078;-66
2022/08/10 09:59:39;;;;;;;3.85;1.73;;;24.60;58.00;;;;;;5048881;28;20059;-65
2022/08/10 10:02:26;;;;;;;2.28;1.50;;;24.70;57.50;;;;;;5044213;28;20120;-66
2022/08/10 10:05:10;;;;;;;3.65;1.63;;;24.80;56.20;;;;;;5048817;28;20306;-66
2022/08/10 10:07:41;;;;;;;2.63;1.60;;;24.80;56.10;;;;;;5052680;28;20045;-66
2022/08/10 10:10:12;;;;;;;2.47;1.73;;;24.90;55.50;;;;;;5048658;28;20512;-66
2022/08/10 10:12:53;;;;;;;3.28;1.63;;;24.90;55.00;;;;;;5051835;28;20040;-66
2022/08/10 10:15:30;;;;;;;2.08;1.45;;;25.00;54.70;;;;;;5053740;28;20115;-66
2022/08/10 10:18:02;;;;;;;3.20;1.40;;;25.10;55.10;;;;;;5055172;28;20090;-66
2022/08/10 10:20:54;;;;;;;2.13;1.58;;;25.20;53.70;;;;;;5053485;28;20488;-66
2022/08/10 10:23:28;;;;;;;4.20;2.28;;;25.20;53.80;;;;;;5042022;28;20036;-66
2022/08/10 10:26:04;;;;;;;2.25;1.80;;;25.20;53.40;;;;;;5053462;28;20025;-66
2022/08/10 10:28:56;;;;;;;2.55;1.50;;;25.30;53.20;;;;;;5053597;28;20039;-65
2022/08/10 10:31:48;;;;;;;6.43;2.13;;;25.30;52.90;;;;;;5055869;28;20520;-66
2022/08/10 10:34:36;;;;;;;1.20;1.05;;;25.30;52.90;;;;;;5041339;28;20029;-65
2022/08/10 10:37:05;;;;;;;4.63;1.48;;;25.30;52.30;;;;;;5053000;28;20107;-65
2022/08/10 10:39:33;;;;;;;2.53;1.67;;;25.40;52.00;;;;;;5052597;28;20021;-65
2022/08/10 10:42:15;;;;;;;2.55;1.25;;;25.50;52.00;;;;;;5052277;28;20048;-64
2022/08/10 10:45:06;;;;;;;4.72;1.75;;;25.60;52.40;;;;;;5043617;28;20032;-65
2022/08/10 10:47:52;;;;;;;2.58;1.65;;;25.70;52.40;;;;;;5051406;28;20036;-65
2022/08/10 10:50:45;;;;;;;2.50;1.50;;;25.80;52.00;;;;;;5056201;28;20204;-65
2022/08/10 10:53:33;;;;;;;3.03;1.52;;;25.80;52.00;;;;;;5051120;28;20495;-65
2022/08/10 10:56:35;;;;;;;6.28;1.60;;;25.90;51.90;;;;;;5051963;28;20032;-65
2022/08/10 10:59:18;;;;;;;3.58;1.60;;;25.80;51.90;;;;;;5033778;28;20029;-65
2022/08/10 11:02:05;;;;;;;2.75;1.40;;;25.90;51.40;;;;;;5050606;28;20063;-65
2022/08/10 11:04:38;;;;;;;3.15;1.73;;;25.90;51.60;;;;;;5052146;28;20025;-65
2022/08/10 11:07:04;;;;;;;2.47;1.60;;;26.00;51.30;;;;;;5049404;28;20051;-65
2022/08/10 11:09:46;;;;;;;3.42;1.90;;;26.00;51.10;;;;;;5047219;28;20017;-66
2022/08/10 11:13:03;;;;;;;2.97;1.60;;;26.00;51.40;;;;;;5047199;28;20051;-65
2022/08/10 11:16:04;;;;;;;9.57;2.13;;;26.10;51.70;;;;;;5015827;28;20444;-65
2022/08/10 11:18:32;;;;;;;2.72;1.45;;;26.20;51.80;;;;;;5052695;28;20036;-65
2022/08/10 11:21:30;;;;;;;3.33;1.90;;;26.30;51.10;;;;;;5051346;28;20037;-66
2022/08/10 11:24:04;;;;;;;2.47;1.40;;;26.30;50.30;;;;;;5053289;28;20068;-66
2022/08/10 11:26:47;;;;;;;5.20;1.40;;;26.40;50.10;;;;;;5050824;28;20049;-65
2022/08/10 11:29:21;;;;;;;1.67;1.38;;;26.40;49.50;;;;;;5051508;28;20083;-65
2022/08/10 11:31:56;;;;;;;6.03;2.03;;;26.50;48.90;;;;;;5046852;28;20464;-65
2022/08/10 11:34:41;;;;;;;3.08;1.75;;;26.60;49.60;;;;;;5051927;28;20037;-65
2022/08/10 11:37:46;;;;;;;2.53;1.35;;;26.70;49.60;;;;;;5051239;28;20021;-65
2022/08/10 11:40:34;;;;;;;2.50;1.35;;;26.70;49.00;;;;;;5046387;28;20032;-65
2022/08/10 11:43:09;;;;;;;2.53;1.48;;;26.80;48.70;;;;;;5046775;28;20029;-65
2022/08/10 11:45:40;;;;;;;2.28;1.40;;;26.70;47.60;;;;;;5044947;28;20083;-65
2022/08/10 11:48:11;;;;;;;2.72;1.83;;;26.80;48.70;;;;;;5045487;28;20033;-65
2022/08/10 11:50:50;;;;;;;2.42;1.30;;;26.80;47.20;;;;;;5033725;28;20177;-65
2022/08/10 11:53:25;;;;;;;2.38;1.50;;;26.90;48.20;;;;;;5054581;28;20043;-66
2022/08/10 11:55:56;;;;;;;4.78;1.80;;;26.90;47.70;;;;;;5043542;28;20040;-65
2022/08/10 12:01:16;;;;;;;2.17;1.70;;;27.10;47.70;;;;;;5047876;28;20264;-66
2022/08/10 12:03:43;;;;;;;2.95;1.60;;;27.10;47.60;;;;;;5051933;28;20032;-65
2022/08/10 12:06:14;;;;;;;2.25;1.50;;;27.10;47.10;;;;;;5048802;28;20045;-65
2022/08/10 12:08:45;;;;;;;2.70;1.60;;;27.20;47.80;;;;;;5045395;28;20025;-66
2022/08/10 12:11:20;;;;;;;2.97;1.63;;;27.20;47.20;;;;;;5043976;28;20124;-66
2022/08/10 12:13:51;;;;;;;2.65;1.75;;;27.20;46.30;;;;;;5048887;28;20494;-66
2022/08/10 12:16:22;;;;;;;3.28;1.75;;;27.10;46.20;;;;;;5033633;28;20086;-65
2022/08/10 12:18:53;;;;;;;3.03;1.88;;;27.10;46.50;;;;;;5050616;28;20086;-65
2022/08/10 12:21:44;;;;;;;1.75;1.40;;;27.10;46.90;;;;;;5040658;28;20045;-65
2022/08/10 12:24:30;;;;;;;2.08;1.25;;;27.20;47.10;;;;;;5045456;28;20112;-65
2022/08/10 12:27:11;;;;;;;2.72;1.70;;;27.20;46.90;;;;;;5047840;28;20037;-65
2022/08/10 12:29:42;;;;;;;2.30;1.77;;;27.30;47.30;;;;;;5048486;28;20035;-65
2022/08/10 12:32:22;;;;;;;2.75;1.55;;;27.30;46.50;;;;;;5050475;28;20025;-65
2022/08/10 12:35:05;;;;;;;2.55;1.83;;;27.30;46.80;;;;;;5051942;28;20029;-65
2022/08/10 12:37:50;;;;;;;3.45;1.73;;;27.30;46.70;;;;;;5050654;28;20107;-65
2022/08/10 12:40:22;;;;;;;2.00;1.42;;;27.30;46.40;;;;;;5055365;28;20029;-65
2022/08/10 12:42:55;;;;;;;2.08;1.65;;;27.40;46.50;;;;;;5054101;28;20097;-65
2022/08/10 12:45:44;;;;;;;2.10;1.50;;;27.50;46.90;;;;;;5049551;28;20372;-65
2022/08/10 12:48:28;;;;;;;6.32;1.85;;;27.60;46.90;;;;;;5032992;28;20152;-65
2022/08/10 12:51:19;;;;;;;5.60;1.87;;;27.70;46.60;;;;;;5042951;28;20064;-66
2022/08/10 12:54:18;;;;;;;5.93;1.92;;;27.80;46.70;;;;;;5031747;28;20045;-65
2022/08/10 12:56:57;;;;;;;3.33;1.98;;;27.90;46.60;;;;;;5022376;28;20043;-66
2022/08/10 12:59:26;;;;;;;3.20;1.90;;;28.00;46.10;;;;;;5045907;28;20024;-65
2022/08/10 13:01:53;;;;;;;2.15;1.60;;;28.10;45.70;;;;;;5048436;28;20452;-65
2022/08/10 13:04:27;;;;;;;3.35;1.40;;;28.10;44.50;;;;;;5047320;28;20375;-66
2022/08/10 13:06:54;;;;;;;2.28;1.73;;;28.20;45.20;;;;;;5045251;28;20055;-66
2022/08/10 13:09:24;;;;;;;2.45;1.63;;;28.20;44.70;;;;;;5049014;28;20025;-66
2022/08/10 13:11:53;;;;;;;2.63;1.65;;;28.30;45.10;;;;;;5052879;28;20391;-65
2022/08/10 13:14:37;;;;;;;3.15;1.85;;;28.30;44.20;;;;;;5064130;28;20025;-64
2022/08/10 13:17:05;;;;;;;3.58;2.03;;;28.30;44.50;;;;;;5050041;28;20029;-65
2022/08/10 13:19:36;;;;;;;2.58;1.70;;;28.40;44.10;;;;;;5050009;28;20069;-65
2022/08/10 13:22:03;;;;;;;3.20;1.92;;;28.40;44.00;;;;;;5049971;28;20069;-65
2022/08/10 13:24:36;;;;;;;4.22;2.08;;;28.50;45.50;;;;;;5033036;28;20380;-66